sensor_id;sensor_type;location;lat;lon;timestamp;P1;durP1;ratioP1;P2;durP2;ratioP2
72319;SDS011;60269;52.502;16.732;2023-07-22T00:01:23;6.45;;;1.40;;
72319;SDS011;60269;52.502;16.732;2023-07-22T00:04:55;5.53;;;1.42;;
72319;SDS011;60269;52.502;16.732;2023-07-22T00:08:27;5.33;;;1.47;;
72319;SDS011;60269;52.502;16.732;2023-07-22T00:12:00;6.95;;;0.93;;
72319;SDS011;60269;52.502;16.732;2023-07-22T00:15:34;5.50;;;1.35;;
72319;SDS011;60269;52.502;16.732;2023-07-22T00:19:06;4.60;;;1.50;;
72319;SDS011;60269;52.502;16.732;2023-07-22T00:22:38;4.27;;;1.10;;
72319;SDS011;60269;52.502;16.732;2023-07-22T00:26:14;5.18;;;1.33;;
72319;SDS011;60269;52.502;16.732;2023-07-22T00:29:46;5.75;;;1.45;;
72319;SDS011;60269;52.502;16.732;2023-07-22T00:33:18;5.07;;;1.00;;
72319;SDS011;60269;52.502;16.732;2023-07-22T00:36:50;5.33;;;1.37;;
72319;SDS011;60269;52.502;16.732;2023-07-22T00:40:22;4.30;;;1.02;;
72319;SDS011;60269;52.502;16.732;2023-07-22T00:43:54;3.65;;;1.00;;
72319;SDS011;60269;52.502;16.732;2023-07-22T00:47:26;7.40;;;1.55;;
72319;SDS011;60269;52.502;16.732;2023-07-22T00:50:59;5.57;;;1.33;;
72319;SDS011;60269;52.502;16.732;2023-07-22T00:54:31;7.32;;;1.17;;
72319;SDS011;60269;52.502;16.732;2023-07-22T00:58:03;5.38;;;1.30;;
72319;SDS011;60269;52.502;16.732;2023-07-22T01:01:35;4.82;;;1.63;;
72319;SDS011;60269;52.502;16.732;2023-07-22T01:05:07;7.77;;;2.17;;
72319;SDS011;60269;52.502;16.732;2023-07-22T01:08:42;7.18;;;1.85;;
72319;SDS011;60269;52.502;16.732;2023-07-22T01:12:14;6.72;;;1.50;;
72319;SDS011;60269;52.502;16.732;2023-07-22T01:15:46;5.35;;;1.58;;
72319;SDS011;60269;52.502;16.732;2023-07-22T01:19:18;5.60;;;1.50;;
72319;SDS011;60269;52.502;16.732;2023-07-22T01:22:51;7.50;;;1.80;;
72319;SDS011;60269;52.502;16.732;2023-07-22T01:26:24;6.32;;;2.28;;
72319;SDS011;60269;52.502;16.732;2023-07-22T01:29:57;6.25;;;2.00;;
72319;SDS011;60269;52.502;16.732;2023-07-22T01:33:28;6.23;;;2.00;;
72319;SDS011;60269;52.502;16.732;2023-07-22T01:37:01;7.83;;;2.07;;
72319;SDS011;60269;52.502;16.732;2023-07-22T01:40:33;8.57;;;2.30;;
72319;SDS011;60269;52.502;16.732;2023-07-22T01:44:05;6.85;;;1.98;;
72319;SDS011;60269;52.502;16.732;2023-07-22T01:47:37;6.20;;;1.90;;
72319;SDS011;60269;52.502;16.732;2023-07-22T01:51:11;6.97;;;2.57;;
72319;SDS011;60269;52.502;16.732;2023-07-22T01:54:43;7.57;;;2.90;;
72319;SDS011;60269;52.502;16.732;2023-07-22T01:58:15;7.07;;;2.20;;
72319;SDS011;60269;52.502;16.732;2023-07-22T02:01:47;6.40;;;2.27;;
72319;SDS011;60269;52.502;16.732;2023-07-22T02:05:19;7.27;;;2.53;;
72319;SDS011;60269;52.502;16.732;2023-07-22T02:08:52;6.95;;;2.78;;
72319;SDS011;60269;52.502;16.732;2023-07-22T02:12:25;6.30;;;2.25;;
72319;SDS011;60269;52.502;16.732;2023-07-22T02:15:57;7.20;;;2.40;;
72319;SDS011;60269;52.502;16.732;2023-07-22T02:19:29;8.83;;;2.40;;
72319;SDS011;60269;52.502;16.732;2023-07-22T02:23:01;7.93;;;2.70;;
72319;SDS011;60269;52.502;16.732;2023-07-22T02:26:33;6.38;;;2.58;;
72319;SDS011;60269;52.502;16.732;2023-07-22T02:30:05;8.90;;;3.13;;
72319;SDS011;60269;52.502;16.732;2023-07-22T02:33:41;6.60;;;2.43;;
72319;SDS011;60269;52.502;16.732;2023-07-22T02:37:15;8.05;;;2.97;;
72319;SDS011;60269;52.502;16.732;2023-07-22T02:40:47;6.97;;;2.85;;
72319;SDS011;60269;52.502;16.732;2023-07-22T02:44:19;7.97;;;3.37;;
72319;SDS011;60269;52.502;16.732;2023-07-22T02:47:51;10.13;;;3.00;;
72319;SDS011;60269;52.502;16.732;2023-07-22T02:51:23;7.80;;;3.10;;
72319;SDS011;60269;52.502;16.732;2023-07-22T02:55:06;10.10;;;3.15;;
72319;SDS011;60269;52.502;16.732;2023-07-22T02:58:40;11.20;;;3.60;;
72319;SDS011;60269;52.502;16.732;2023-07-22T03:02:13;7.33;;;3.27;;
72319;SDS011;60269;52.502;16.732;2023-07-22T03:05:45;10.25;;;3.70;;
72319;SDS011;60269;52.502;16.732;2023-07-22T03:09:19;8.52;;;3.03;;
72319;SDS011;60269;52.502;16.732;2023-07-22T03:12:53;7.43;;;2.97;;
72319;SDS011;60269;52.502;16.732;2023-07-22T03:16:27;8.63;;;3.50;;
72319;SDS011;60269;52.502;16.732;2023-07-22T03:19:59;9.88;;;3.38;;
72319;SDS011;60269;52.502;16.732;2023-07-22T03:23:32;9.63;;;3.25;;
72319;SDS011;60269;52.502;16.732;2023-07-22T03:27:04;7.93;;;3.00;;
72319;SDS011;60269;52.502;16.732;2023-07-22T03:30:36;8.27;;;3.20;;
72319;SDS011;60269;52.502;16.732;2023-07-22T03:34:08;9.43;;;3.50;;
72319;SDS011;60269;52.502;16.732;2023-07-22T03:37:40;10.30;;;3.65;;
72319;SDS011;60269;52.502;16.732;2023-07-22T03:41:12;8.83;;;3.77;;
72319;SDS011;60269;52.502;16.732;2023-07-22T03:44:44;9.63;;;3.80;;
72319;SDS011;60269;52.502;16.732;2023-07-22T03:48:16;9.32;;;3.70;;
72319;SDS011;60269;52.502;16.732;2023-07-22T03:51:49;9.73;;;4.20;;
72319;SDS011;60269;52.502;16.732;2023-07-22T03:55:20;10.87;;;4.27;;
72319;SDS011;60269;52.502;16.732;2023-07-22T03:58:53;11.13;;;3.63;;
72319;SDS011;60269;52.502;16.732;2023-07-22T04:02:25;11.73;;;4.65;;
72319;SDS011;60269;52.502;16.732;2023-07-22T04:05:57;8.50;;;4.22;;
72319;SDS011;60269;52.502;16.732;2023-07-22T04:09:29;11.53;;;4.50;;
72319;SDS011;60269;52.502;16.732;2023-07-22T04:13:01;11.88;;;4.10;;
72319;SDS011;60269;52.502;16.732;2023-07-22T04:16:33;10.25;;;4.32;;
72319;SDS011;60269;52.502;16.732;2023-07-22T04:20:06;11.67;;;4.67;;
72319;SDS011;60269;52.502;16.732;2023-07-22T04:23:40;9.57;;;4.10;;
72319;SDS011;60269;52.502;16.732;2023-07-22T04:27:12;9.43;;;4.25;;
72319;SDS011;60269;52.502;16.732;2023-07-22T04:30:53;10.40;;;4.65;;
72319;SDS011;60269;52.502;16.732;2023-07-22T04:34:30;12.13;;;4.72;;
72319;SDS011;60269;52.502;16.732;2023-07-22T04:38:02;10.93;;;4.23;;
72319;SDS011;60269;52.502;16.732;2023-07-22T04:41:35;11.43;;;4.00;;
72319;SDS011;60269;52.502;16.732;2023-07-22T04:45:07;9.63;;;4.05;;
72319;SDS011;60269;52.502;16.732;2023-07-22T04:48:44;8.75;;;4.47;;
72319;SDS011;60269;52.502;16.732;2023-07-22T04:52:16;9.73;;;4.40;;
72319;SDS011;60269;52.502;16.732;2023-07-22T04:55:49;10.02;;;4.70;;
72319;SDS011;60269;52.502;16.732;2023-07-22T04:59:21;9.48;;;4.93;;
72319;SDS011;60269;52.502;16.732;2023-07-22T05:02:54;9.10;;;4.45;;
72319;SDS011;60269;52.502;16.732;2023-07-22T05:06:28;9.43;;;3.90;;
72319;SDS011;60269;52.502;16.732;2023-07-22T05:10:01;8.70;;;4.28;;
72319;SDS011;60269;52.502;16.732;2023-07-22T05:13:33;9.30;;;4.15;;
72319;SDS011;60269;52.502;16.732;2023-07-22T05:17:07;8.10;;;3.90;;
72319;SDS011;60269;52.502;16.732;2023-07-22T05:20:39;8.53;;;4.07;;
72319;SDS011;60269;52.502;16.732;2023-07-22T05:24:11;7.38;;;3.80;;
72319;SDS011;60269;52.502;16.732;2023-07-22T05:27:44;11.10;;;4.05;;
72319;SDS011;60269;52.502;16.732;2023-07-22T05:31:16;8.57;;;4.00;;
72319;SDS011;60269;52.502;16.732;2023-07-22T05:34:48;7.60;;;3.80;;
72319;SDS011;60269;52.502;16.732;2023-07-22T05:38:20;7.35;;;3.20;;
72319;SDS011;60269;52.502;16.732;2023-07-22T05:41:52;7.35;;;3.30;;
72319;SDS011;60269;52.502;16.732;2023-07-22T05:45:25;7.20;;;3.08;;
72319;SDS011;60269;52.502;16.732;2023-07-22T05:48:57;7.73;;;3.23;;
72319;SDS011;60269;52.502;16.732;2023-07-22T05:52:28;7.00;;;2.50;;
72319;SDS011;60269;52.502;16.732;2023-07-22T05:56:01;6.30;;;2.63;;
72319;SDS011;60269;52.502;16.732;2023-07-22T05:59:33;5.97;;;2.75;;
72319;SDS011;60269;52.502;16.732;2023-07-22T06:03:07;4.93;;;1.70;;
72319;SDS011;60269;52.502;16.732;2023-07-22T06:06:41;7.22;;;2.28;;
72319;SDS011;60269;52.502;16.732;2023-07-22T06:10:13;5.43;;;2.30;;
72319;SDS011;60269;52.502;16.732;2023-07-22T06:13:45;6.13;;;2.88;;
72319;SDS011;60269;52.502;16.732;2023-07-22T06:17:17;6.60;;;2.83;;
72319;SDS011;60269;52.502;16.732;2023-07-22T06:20:50;6.77;;;2.97;;
72319;SDS011;60269;52.502;16.732;2023-07-22T06:24:22;6.95;;;2.78;;
72319;SDS011;60269;52.502;16.732;2023-07-22T06:27:54;8.10;;;3.30;;
72319;SDS011;60269;52.502;16.732;2023-07-22T06:31:26;9.43;;;3.33;;
72319;SDS011;60269;52.502;16.732;2023-07-22T06:35:02;8.20;;;3.20;;
72319;SDS011;60269;52.502;16.732;2023-07-22T06:38:35;7.40;;;3.70;;
72319;SDS011;60269;52.502;16.732;2023-07-22T06:42:06;8.98;;;3.60;;
72319;SDS011;60269;52.502;16.732;2023-07-22T06:45:39;9.00;;;3.67;;
72319;SDS011;60269;52.502;16.732;2023-07-22T06:49:11;7.27;;;3.03;;
72319;SDS011;60269;52.502;16.732;2023-07-22T06:52:43;6.80;;;3.43;;
72319;SDS011;60269;52.502;16.732;2023-07-22T06:56:15;7.93;;;2.97;;
72319;SDS011;60269;52.502;16.732;2023-07-22T06:59:48;7.85;;;3.20;;
72319;SDS011;60269;52.502;16.732;2023-07-22T07:03:22;8.00;;;3.33;;
72319;SDS011;60269;52.502;16.732;2023-07-22T07:07:13;7.53;;;3.30;;
72319;SDS011;60269;52.502;16.732;2023-07-22T07:10:46;6.57;;;2.92;;
72319;SDS011;60269;52.502;16.732;2023-07-22T07:14:18;6.75;;;3.15;;
72319;SDS011;60269;52.502;16.732;2023-07-22T07:17:50;6.05;;;2.70;;
72319;SDS011;60269;52.502;16.732;2023-07-22T07:21:23;6.53;;;2.83;;
72319;SDS011;60269;52.502;16.732;2023-07-22T07:24:56;5.40;;;1.97;;
72319;SDS011;60269;52.502;16.732;2023-07-22T07:28:27;5.00;;;2.10;;
72319;SDS011;60269;52.502;16.732;2023-07-22T07:31:59;5.22;;;1.83;;
72319;SDS011;60269;52.502;16.732;2023-07-22T07:35:31;5.00;;;1.98;;
72319;SDS011;60269;52.502;16.732;2023-07-22T07:39:04;4.77;;;2.10;;
72319;SDS011;60269;52.502;16.732;2023-07-22T07:42:36;4.77;;;1.73;;
72319;SDS011;60269;52.502;16.732;2023-07-22T07:46:16;4.57;;;1.77;;
72319;SDS011;60269;52.502;16.732;2023-07-22T07:49:55;5.07;;;2.20;;
72319;SDS011;60269;52.502;16.732;2023-07-22T07:53:27;9.60;;;3.42;;
72319;SDS011;60269;52.502;16.732;2023-07-22T07:56:59;4.43;;;1.33;;
72319;SDS011;60269;52.502;16.732;2023-07-22T08:00:32;6.03;;;1.10;;
72319;SDS011;60269;52.502;16.732;2023-07-22T08:04:05;4.07;;;1.35;;
72319;SDS011;60269;52.502;16.732;2023-07-22T08:07:37;3.97;;;1.30;;
72319;SDS011;60269;52.502;16.732;2023-07-22T08:11:11;4.18;;;1.27;;
72319;SDS011;60269;52.502;16.732;2023-07-22T08:14:47;5.23;;;1.40;;
72319;SDS011;60269;52.502;16.732;2023-07-22T08:18:19;5.37;;;1.57;;
72319;SDS011;60269;52.502;16.732;2023-07-22T08:21:54;5.45;;;1.50;;
72319;SDS011;60269;52.502;16.732;2023-07-22T08:25:26;3.28;;;1.15;;
72319;SDS011;60269;52.502;16.732;2023-07-22T08:28:59;2.83;;;1.13;;
72319;SDS011;60269;52.502;16.732;2023-07-22T08:32:31;4.40;;;1.27;;
72319;SDS011;60269;52.502;16.732;2023-07-22T08:36:03;6.05;;;1.50;;
72319;SDS011;60269;52.502;16.732;2023-07-22T08:39:35;6.35;;;1.70;;
72319;SDS011;60269;52.502;16.732;2023-07-22T08:43:08;4.35;;;1.20;;
72319;SDS011;60269;52.502;16.732;2023-07-22T08:46:41;4.20;;;1.30;;
72319;SDS011;60269;52.502;16.732;2023-07-22T08:50:15;4.07;;;1.20;;
72319;SDS011;60269;52.502;16.732;2023-07-22T08:53:50;5.35;;;1.20;;
72319;SDS011;60269;52.502;16.732;2023-07-22T08:57:42;5.65;;;1.00;;
72319;SDS011;60269;52.502;16.732;2023-07-22T09:01:14;4.68;;;1.30;;
72319;SDS011;60269;52.502;16.732;2023-07-22T09:04:47;7.63;;;1.23;;
72319;SDS011;60269;52.502;16.732;2023-07-22T09:08:19;3.03;;;0.82;;
72319;SDS011;60269;52.502;16.732;2023-07-22T09:11:53;5.55;;;1.27;;
72319;SDS011;60269;52.502;16.732;2023-07-22T09:15:26;4.45;;;0.70;;
72319;SDS011;60269;52.502;16.732;2023-07-22T09:18:59;3.38;;;1.00;;
72319;SDS011;60269;52.502;16.732;2023-07-22T09:22:32;4.73;;;1.07;;
72319;SDS011;60269;52.502;16.732;2023-07-22T09:26:09;7.15;;;1.13;;
72319;SDS011;60269;52.502;16.732;2023-07-22T09:29:41;3.42;;;0.80;;
72319;SDS011;60269;52.502;16.732;2023-07-22T09:33:20;4.00;;;1.20;;
72319;SDS011;60269;52.502;16.732;2023-07-22T09:36:54;3.35;;;0.82;;
72319;SDS011;60269;52.502;16.732;2023-07-22T09:40:28;4.77;;;1.30;;
72319;SDS011;60269;52.502;16.732;2023-07-22T09:44:02;6.68;;;1.05;;
72319;SDS011;60269;52.502;16.732;2023-07-22T09:47:42;3.90;;;1.00;;
72319;SDS011;60269;52.502;16.732;2023-07-22T09:51:15;4.03;;;1.00;;
72319;SDS011;60269;52.502;16.732;2023-07-22T09:54:48;4.47;;;1.25;;
72319;SDS011;60269;52.502;16.732;2023-07-22T09:58:24;4.27;;;1.27;;
72319;SDS011;60269;52.502;16.732;2023-07-22T10:02:00;5.80;;;1.20;;
72319;SDS011;60269;52.502;16.732;2023-07-22T10:05:35;7.80;;;1.13;;
72319;SDS011;60269;52.502;16.732;2023-07-22T10:09:10;5.53;;;1.55;;
72319;SDS011;60269;52.502;16.732;2023-07-22T10:12:43;6.10;;;1.20;;
72319;SDS011;60269;52.502;16.732;2023-07-22T10:16:16;5.80;;;1.37;;
72319;SDS011;60269;52.502;16.732;2023-07-22T10:19:48;5.00;;;1.25;;
72319;SDS011;60269;52.502;16.732;2023-07-22T10:23:22;5.13;;;1.42;;
72319;SDS011;60269;52.502;16.732;2023-07-22T10:26:56;4.90;;;1.52;;
72319;SDS011;60269;52.502;16.732;2023-07-22T10:30:28;7.53;;;1.42;;
72319;SDS011;60269;52.502;16.732;2023-07-22T10:34:01;4.40;;;1.37;;
72319;SDS011;60269;52.502;16.732;2023-07-22T10:37:33;4.93;;;1.30;;
72319;SDS011;60269;52.502;16.732;2023-07-22T10:41:15;6.22;;;1.67;;
72319;SDS011;60269;52.502;16.732;2023-07-22T10:44:49;5.05;;;1.80;;
72319;SDS011;60269;52.502;16.732;2023-07-22T10:48:27;5.32;;;1.83;;
72319;SDS011;60269;52.502;16.732;2023-07-22T10:52:06;3.93;;;1.20;;
72319;SDS011;60269;52.502;16.732;2023-07-22T10:59:47;4.30;;;1.50;;
72319;SDS011;60269;52.502;16.732;2023-07-22T11:03:21;5.10;;;1.40;;
72319;SDS011;60269;52.502;16.732;2023-07-22T11:06:55;4.30;;;1.60;;
72319;SDS011;60269;52.502;16.732;2023-07-22T11:10:27;6.10;;;1.70;;
72319;SDS011;60269;52.502;16.732;2023-07-22T11:14:16;3.85;;;1.15;;
72319;SDS011;60269;52.502;16.732;2023-07-22T11:17:52;4.60;;;1.40;;
72319;SDS011;60269;52.502;16.732;2023-07-22T11:21:25;5.25;;;1.42;;
72319;SDS011;60269;52.502;16.732;2023-07-22T11:24:57;7.83;;;1.70;;
72319;SDS011;60269;52.502;16.732;2023-07-22T11:28:30;4.33;;;1.50;;
72319;SDS011;60269;52.502;16.732;2023-07-22T11:32:04;4.88;;;1.50;;
72319;SDS011;60269;52.502;16.732;2023-07-22T11:35:38;6.57;;;1.88;;
72319;SDS011;60269;52.502;16.732;2023-07-22T11:39:15;4.97;;;1.52;;
72319;SDS011;60269;52.502;16.732;2023-07-22T11:42:49;6.00;;;1.57;;
72319;SDS011;60269;52.502;16.732;2023-07-22T11:46:22;5.88;;;1.75;;
72319;SDS011;60269;52.502;16.732;2023-07-22T11:49:55;4.97;;;1.73;;
72319;SDS011;60269;52.502;16.732;2023-07-22T11:53:27;4.70;;;2.05;;
72319;SDS011;60269;52.502;16.732;2023-07-22T11:57:15;4.53;;;1.67;;
72319;SDS011;60269;52.502;16.732;2023-07-22T12:00:47;4.97;;;1.70;;
72319;SDS011;60269;52.502;16.732;2023-07-22T12:04:39;4.63;;;1.30;;
72319;SDS011;60269;52.502;16.732;2023-07-22T12:08:14;10.45;;;2.63;;
72319;SDS011;60269;52.502;16.732;2023-07-22T12:11:47;7.23;;;1.93;;
72319;SDS011;60269;52.502;16.732;2023-07-22T12:15:26;6.33;;;1.53;;
72319;SDS011;60269;52.502;16.732;2023-07-22T12:18:58;6.13;;;1.30;;
72319;SDS011;60269;52.502;16.732;2023-07-22T12:22:32;5.65;;;1.58;;
72319;SDS011;60269;52.502;16.732;2023-07-22T12:26:05;5.95;;;1.75;;
72319;SDS011;60269;52.502;16.732;2023-07-22T12:29:37;4.77;;;1.60;;
72319;SDS011;60269;52.502;16.732;2023-07-22T12:33:09;6.70;;;1.80;;
72319;SDS011;60269;52.502;16.732;2023-07-22T12:36:41;5.15;;;1.30;;
72319;SDS011;60269;52.502;16.732;2023-07-22T12:40:13;7.47;;;1.70;;
72319;SDS011;60269;52.502;16.732;2023-07-22T12:43:46;6.37;;;1.50;;
72319;SDS011;60269;52.502;16.732;2023-07-22T12:47:18;5.93;;;1.70;;
72319;SDS011;60269;52.502;16.732;2023-07-22T12:50:50;5.20;;;1.45;;
72319;SDS011;60269;52.502;16.732;2023-07-22T12:54:24;5.07;;;1.70;;
72319;SDS011;60269;52.502;16.732;2023-07-22T12:57:55;6.57;;;1.70;;
72319;SDS011;60269;52.502;16.732;2023-07-22T13:01:28;5.27;;;1.77;;
72319;SDS011;60269;52.502;16.732;2023-07-22T13:05:00;4.77;;;1.83;;
72319;SDS011;60269;52.502;16.732;2023-07-22T13:08:33;7.90;;;1.75;;
72319;SDS011;60269;52.502;16.732;2023-07-22T13:12:05;5.07;;;1.88;;
72319;SDS011;60269;52.502;16.732;2023-07-22T13:15:37;5.85;;;1.90;;
72319;SDS011;60269;52.502;16.732;2023-07-22T13:19:09;4.77;;;1.93;;
72319;SDS011;60269;52.502;16.732;2023-07-22T13:22:42;5.13;;;1.33;;
72319;SDS011;60269;52.502;16.732;2023-07-22T13:26:14;6.68;;;1.60;;
72319;SDS011;60269;52.502;16.732;2023-07-22T13:29:47;4.40;;;1.13;;
72319;SDS011;60269;52.502;16.732;2023-07-22T13:33:18;5.45;;;1.40;;
72319;SDS011;60269;52.502;16.732;2023-07-22T13:36:50;6.67;;;2.03;;
72319;SDS011;60269;52.502;16.732;2023-07-22T13:40:22;5.03;;;2.13;;
72319;SDS011;60269;52.502;16.732;2023-07-22T13:43:54;5.32;;;2.75;;
72319;SDS011;60269;52.502;16.732;2023-07-22T13:47:26;6.28;;;3.13;;
72319;SDS011;60269;52.502;16.732;2023-07-22T13:50:58;4.93;;;2.60;;
72319;SDS011;60269;52.502;16.732;2023-07-22T13:54:30;4.70;;;2.63;;
72319;SDS011;60269;52.502;16.732;2023-07-22T13:58:02;12.10;;;2.57;;
72319;SDS011;60269;52.502;16.732;2023-07-22T14:01:34;5.30;;;2.17;;
72319;SDS011;60269;52.502;16.732;2023-07-22T14:05:26;5.40;;;2.47;;
72319;SDS011;60269;52.502;16.732;2023-07-22T14:08:58;11.88;;;1.55;;
72319;SDS011;60269;52.502;16.732;2023-07-22T14:12:30;6.60;;;1.40;;
72319;SDS011;60269;52.502;16.732;2023-07-22T14:16:02;4.82;;;1.00;;
72319;SDS011;60269;52.502;16.732;2023-07-22T14:19:52;5.22;;;1.15;;
72319;SDS011;60269;52.502;16.732;2023-07-22T14:23:24;7.38;;;1.83;;
72319;SDS011;60269;52.502;16.732;2023-07-22T14:26:56;4.83;;;1.77;;
72319;SDS011;60269;52.502;16.732;2023-07-22T14:30:28;6.60;;;1.57;;
72319;SDS011;60269;52.502;16.732;2023-07-22T14:34:00;4.78;;;1.65;;
72319;SDS011;60269;52.502;16.732;2023-07-22T14:37:32;5.97;;;3.08;;
72319;SDS011;60269;52.502;16.732;2023-07-22T14:41:04;9.10;;;3.38;;
72319;SDS011;60269;52.502;16.732;2023-07-22T14:44:36;9.37;;;3.03;;
72319;SDS011;60269;52.502;16.732;2023-07-22T14:48:08;5.25;;;2.95;;
72319;SDS011;60269;52.502;16.732;2023-07-22T14:51:40;6.07;;;3.58;;
72319;SDS011;60269;52.502;16.732;2023-07-22T14:55:13;6.43;;;4.10;;
72319;SDS011;60269;52.502;16.732;2023-07-22T14:58:45;6.00;;;3.72;;
72319;SDS011;60269;52.502;16.732;2023-07-22T15:02:17;6.17;;;3.20;;
72319;SDS011;60269;52.502;16.732;2023-07-22T15:05:49;5.68;;;3.38;;
72319;SDS011;60269;52.502;16.732;2023-07-22T15:09:22;6.40;;;3.28;;
72319;SDS011;60269;52.502;16.732;2023-07-22T15:12:54;6.30;;;2.90;;
72319;SDS011;60269;52.502;16.732;2023-07-22T15:16:27;8.38;;;3.58;;
72319;SDS011;60269;52.502;16.732;2023-07-22T15:19:59;5.63;;;3.10;;
72319;SDS011;60269;52.502;16.732;2023-07-22T15:23:32;6.35;;;2.15;;
72319;SDS011;60269;52.502;16.732;2023-07-22T15:27:04;4.85;;;1.35;;
72319;SDS011;60269;52.502;16.732;2023-07-22T15:30:37;5.10;;;1.95;;
72319;SDS011;60269;52.502;16.732;2023-07-22T15:34:09;5.53;;;2.07;;
72319;SDS011;60269;52.502;16.732;2023-07-22T15:37:44;5.38;;;1.60;;
72319;SDS011;60269;52.502;16.732;2023-07-22T15:41:16;4.97;;;1.48;;
72319;SDS011;60269;52.502;16.732;2023-07-22T15:44:48;3.85;;;1.10;;
72319;SDS011;60269;52.502;16.732;2023-07-22T15:48:19;7.40;;;1.70;;
72319;SDS011;60269;52.502;16.732;2023-07-22T15:51:52;4.90;;;1.37;;
72319;SDS011;60269;52.502;16.732;2023-07-22T15:55:24;7.78;;;1.75;;
72319;SDS011;60269;52.502;16.732;2023-07-22T15:58:57;7.05;;;1.60;;
72319;SDS011;60269;52.502;16.732;2023-07-22T16:02:29;4.28;;;1.15;;
72319;SDS011;60269;52.502;16.732;2023-07-22T16:06:01;7.47;;;1.37;;
72319;SDS011;60269;52.502;16.732;2023-07-22T16:09:34;7.07;;;1.40;;
72319;SDS011;60269;52.502;16.732;2023-07-22T16:13:07;4.85;;;1.25;;
72319;SDS011;60269;52.502;16.732;2023-07-22T16:16:40;5.40;;;1.23;;
72319;SDS011;60269;52.502;16.732;2023-07-22T16:20:13;5.43;;;1.50;;
72319;SDS011;60269;52.502;16.732;2023-07-22T16:23:45;5.63;;;1.50;;
72319;SDS011;60269;52.502;16.732;2023-07-22T16:27:18;5.70;;;1.77;;
72319;SDS011;60269;52.502;16.732;2023-07-22T16:30:49;5.07;;;1.60;;
72319;SDS011;60269;52.502;16.732;2023-07-22T16:34:22;5.00;;;1.00;;
72319;SDS011;60269;52.502;16.732;2023-07-22T16:37:54;5.93;;;1.30;;
72319;SDS011;60269;52.502;16.732;2023-07-22T16:41:26;4.85;;;1.30;;
72319;SDS011;60269;52.502;16.732;2023-07-22T16:44:59;12.23;;;1.85;;
72319;SDS011;60269;52.502;16.732;2023-07-22T16:48:31;8.85;;;1.42;;
72319;SDS011;60269;52.502;16.732;2023-07-22T16:52:05;8.50;;;1.80;;
72319;SDS011;60269;52.502;16.732;2023-07-22T16:55:38;4.70;;;1.02;;
72319;SDS011;60269;52.502;16.732;2023-07-22T16:59:10;5.65;;;1.33;;
72319;SDS011;60269;52.502;16.732;2023-07-22T17:02:43;5.10;;;1.20;;
72319;SDS011;60269;52.502;16.732;2023-07-22T17:06:15;6.10;;;1.30;;
72319;SDS011;60269;52.502;16.732;2023-07-22T17:09:48;5.43;;;1.20;;
72319;SDS011;60269;52.502;16.732;2023-07-22T17:13:20;8.68;;;2.20;;
72319;SDS011;60269;52.502;16.732;2023-07-22T17:16:52;9.82;;;1.85;;
72319;SDS011;60269;52.502;16.732;2023-07-22T17:20:24;10.40;;;1.73;;
72319;SDS011;60269;52.502;16.732;2023-07-22T17:24:14;5.13;;;1.10;;
72319;SDS011;60269;52.502;16.732;2023-07-22T17:27:49;6.10;;;1.17;;
72319;SDS011;60269;52.502;16.732;2023-07-22T17:31:21;7.38;;;2.00;;
72319;SDS011;60269;52.502;16.732;2023-07-22T17:34:53;4.50;;;1.50;;
72319;SDS011;60269;52.502;16.732;2023-07-22T17:38:26;5.50;;;1.53;;
72319;SDS011;60269;52.502;16.732;2023-07-22T17:41:59;6.77;;;1.73;;
72319;SDS011;60269;52.502;16.732;2023-07-22T17:45:31;5.72;;;1.50;;
72319;SDS011;60269;52.502;16.732;2023-07-22T17:49:03;6.18;;;1.80;;
72319;SDS011;60269;52.502;16.732;2023-07-22T17:52:35;6.07;;;1.20;;
72319;SDS011;60269;52.502;16.732;2023-07-22T17:56:07;6.33;;;1.10;;
72319;SDS011;60269;52.502;16.732;2023-07-22T17:59:39;6.70;;;1.40;;
72319;SDS011;60269;52.502;16.732;2023-07-22T18:03:11;4.97;;;1.55;;
72319;SDS011;60269;52.502;16.732;2023-07-22T18:06:44;8.13;;;1.45;;
72319;SDS011;60269;52.502;16.732;2023-07-22T18:10:16;4.97;;;1.13;;
72319;SDS011;60269;52.502;16.732;2023-07-22T18:13:48;6.75;;;1.55;;
72319;SDS011;60269;52.502;16.732;2023-07-22T18:17:21;9.38;;;1.80;;
72319;SDS011;60269;52.502;16.732;2023-07-22T18:20:53;6.53;;;1.52;;
72319;SDS011;60269;52.502;16.732;2023-07-22T18:24:25;6.07;;;1.70;;
72319;SDS011;60269;52.502;16.732;2023-07-22T18:27:57;6.53;;;1.63;;
72319;SDS011;60269;52.502;16.732;2023-07-22T18:31:30;6.43;;;1.45;;
72319;SDS011;60269;52.502;16.732;2023-07-22T18:35:06;9.20;;;2.00;;
72319;SDS011;60269;52.502;16.732;2023-07-22T18:38:38;5.88;;;1.48;;
72319;SDS011;60269;52.502;16.732;2023-07-22T18:42:10;5.57;;;1.23;;
72319;SDS011;60269;52.502;16.732;2023-07-22T18:45:42;6.22;;;1.45;;
72319;SDS011;60269;52.502;16.732;2023-07-22T18:49:14;5.82;;;1.60;;
72319;SDS011;60269;52.502;16.732;2023-07-22T18:52:46;5.57;;;1.38;;
72319;SDS011;60269;52.502;16.732;2023-07-22T18:56:18;5.77;;;1.53;;
72319;SDS011;60269;52.502;16.732;2023-07-22T18:59:51;10.03;;;1.83;;
72319;SDS011;60269;52.502;16.732;2023-07-22T19:03:24;6.68;;;1.73;;
72319;SDS011;60269;52.502;16.732;2023-07-22T19:06:56;6.13;;;1.73;;
72319;SDS011;60269;52.502;16.732;2023-07-22T19:10:29;6.88;;;1.23;;
72319;SDS011;60269;52.502;16.732;2023-07-22T19:14:01;6.60;;;1.40;;
72319;SDS011;60269;52.502;16.732;2023-07-22T19:17:33;6.88;;;1.50;;
72319;SDS011;60269;52.502;16.732;2023-07-22T19:21:06;8.63;;;1.58;;
72319;SDS011;60269;52.502;16.732;2023-07-22T19:24:38;13.40;;;4.22;;
72319;SDS011;60269;52.502;16.732;2023-07-22T19:28:10;6.67;;;1.93;;
72319;SDS011;60269;52.502;16.732;2023-07-22T19:31:43;39.47;;;7.28;;
72319;SDS011;60269;52.502;16.732;2023-07-22T19:35:16;8.85;;;2.25;;
72319;SDS011;60269;52.502;16.732;2023-07-22T19:38:48;10.32;;;3.15;;
72319;SDS011;60269;52.502;16.732;2023-07-22T19:42:20;8.20;;;1.57;;
72319;SDS011;60269;52.502;16.732;2023-07-22T19:46:00;9.63;;;2.80;;
72319;SDS011;60269;52.502;16.732;2023-07-22T19:49:32;6.10;;;1.40;;
72319;SDS011;60269;52.502;16.732;2023-07-22T19:53:04;7.55;;;2.40;;
72319;SDS011;60269;52.502;16.732;2023-07-22T19:56:37;8.73;;;1.63;;
72319;SDS011;60269;52.502;16.732;2023-07-22T20:00:08;5.50;;;1.85;;
72319;SDS011;60269;52.502;16.732;2023-07-22T20:03:41;6.88;;;1.65;;
72319;SDS011;60269;52.502;16.732;2023-07-22T20:07:13;7.20;;;1.97;;
72319;SDS011;60269;52.502;16.732;2023-07-22T20:11:03;9.13;;;1.93;;
72319;SDS011;60269;52.502;16.732;2023-07-22T20:14:39;13.00;;;2.53;;
72319;SDS011;60269;52.502;16.732;2023-07-22T20:18:11;7.60;;;1.83;;
72319;SDS011;60269;52.502;16.732;2023-07-22T20:21:43;8.03;;;1.80;;
72319;SDS011;60269;52.502;16.732;2023-07-22T20:25:15;9.67;;;2.23;;
72319;SDS011;60269;52.502;16.732;2023-07-22T20:28:47;6.38;;;1.73;;
72319;SDS011;60269;52.502;16.732;2023-07-22T20:32:19;9.20;;;1.92;;
72319;SDS011;60269;52.502;16.732;2023-07-22T20:36:01;6.45;;;2.00;;
72319;SDS011;60269;52.502;16.732;2023-07-22T20:39:32;6.10;;;1.70;;
72319;SDS011;60269;52.502;16.732;2023-07-22T20:43:05;7.55;;;1.90;;
72319;SDS011;60269;52.502;16.732;2023-07-22T20:46:37;7.63;;;2.35;;
72319;SDS011;60269;52.502;16.732;2023-07-22T20:50:09;7.68;;;2.17;;
72319;SDS011;60269;52.502;16.732;2023-07-22T20:53:43;8.07;;;2.23;;
72319;SDS011;60269;52.502;16.732;2023-07-22T20:57:15;9.77;;;1.70;;
72319;SDS011;60269;52.502;16.732;2023-07-22T21:00:48;9.35;;;2.00;;
72319;SDS011;60269;52.502;16.732;2023-07-22T21:04:21;11.83;;;3.07;;
72319;SDS011;60269;52.502;16.732;2023-07-22T21:08:12;10.33;;;2.43;;